Time;durP1;ratioP1;P1;durP2;ratioP2;P2;SDS_P1;SDS_P2;PMS_P1;PMS_P2;Temp;Humidity;BMP_temperature;BMP_pressure;BME280_temperature;BME280_humidity;BME280_pressure;Samples;Min_cycle;Max_cycle;Signal;HPM_P1;HPM_P2
2022/12/14 00:01:11;;;;;;;6.28;3.47;;;24.50;77.90;;;;;;6176342;23;20376;-72
2022/12/14 00:03:38;;;;;;;17.40;4.35;;;24.50;78.40;;;;;;6175799;23;20005;-71
2022/12/14 00:06:13;;;;;;;11.80;3.60;;;24.50;78.90;;;;;;6175782;23;20431;-68
2022/12/14 00:08:40;;;;;;;6.10;3.38;;;24.50;79.40;;;;;;6176966;23;20582;-71
2022/12/14 00:11:07;;;;;;;10.05;3.60;;;24.50;79.40;;;;;;6176534;23;20012;-68
2022/12/14 00:13:34;;;;;;;7.47;3.00;;;24.50;79.50;;;;;;6175142;23;20323;-68
2022/12/14 00:16:13;;;;;;;7.22;4.05;;;24.50;79.50;;;;;;6177420;23;20130;-68
2022/12/14 00:18:40;;;;;;;6.95;4.00;;;24.40;79.40;;;;;;6176079;23;20001;-70
2022/12/14 00:21:09;;;;;;;7.72;3.17;;;24.40;79.30;;;;;;6177326;23;20081;-70
2022/12/14 00:23:37;;;;;;;3.75;3.13;;;24.40;79.30;;;;;;6149731;22;20318;-69
2022/12/14 00:26:14;;;;;;;3.92;2.75;;;24.40;79.30;;;;;;6177289;23;20025;-69
2022/12/14 00:28:42;;;;;;;3.22;2.92;;;24.40;79.30;;;;;;6176857;23;20001;-67
2022/12/14 00:31:09;;;;;;;3.03;2.50;;;24.40;79.30;;;;;;6176559;23;20750;-70
2022/12/14 00:33:36;;;;;;;2.95;2.70;;;24.40;79.30;;;;;;6177512;23;20063;-68
2022/12/14 00:36:04;;;;;;;3.00;2.70;;;24.40;79.30;;;;;;6173200;23;20001;-68
2022/12/14 00:38:30;;;;;;;2.75;2.55;;;24.40;79.40;;;;;;6176936;23;20482;-67
2022/12/14 00:40:57;;;;;;;2.38;1.80;;;24.40;79.50;;;;;;6176334;23;20001;-69
2022/12/14 00:43:24;;;;;;;2.65;1.75;;;24.40;79.50;;;;;;6178020;23;20023;-69
2022/12/14 00:45:51;;;;;;;2.92;2.25;;;24.40;79.60;;;;;;6176674;23;20001;-71
2022/12/14 00:48:20;;;;;;;2.90;1.80;;;24.40;79.60;;;;;;6176835;23;20430;-71
2022/12/14 00:50:47;;;;;;;1.92;1.75;;;24.40;79.70;;;;;;6177583;23;20009;-69
2022/12/14 00:53:14;;;;;;;2.60;2.35;;;24.40;79.70;;;;;;6176109;23;20019;-67
2022/12/14 00:55:42;;;;;;;2.28;2.00;;;24.40;79.80;;;;;;6177911;23;20009;-70
2022/12/14 00:58:12;;;;;;;1.70;1.60;;;24.40;79.90;;;;;;6175983;23;20001;-69
2022/12/14 01:00:38;;;;;;;2.20;2.00;;;24.40;79.80;;;;;;6177960;23;20328;-70
2022/12/14 01:03:06;;;;;;;2.97;2.13;;;24.40;79.80;;;;;;6176428;23;20358;-69
2022/12/14 01:05:36;;;;;;;2.38;2.17;;;24.40;79.80;;;;;;6176486;23;20008;-71
2022/12/14 01:08:02;;;;;;;1.85;1.75;;;24.40;79.80;;;;;;6176948;23;20012;-70
2022/12/14 01:10:29;;;;;;;2.15;1.95;;;24.40;79.70;;;;;;6176622;23;19989;-70
2022/12/14 01:12:55;;;;;;;2.65;2.40;;;24.40;79.70;;;;;;6177609;23;20017;-70
2022/12/14 01:15:22;;;;;;;2.67;2.15;;;24.40;79.80;;;;;;6176493;23;20073;-67
2022/12/14 01:17:51;;;;;;;2.58;2.17;;;24.40;79.80;;;;;;6177090;23;20001;-70
2022/12/14 01:20:18;;;;;;;1.83;1.73;;;24.40;79.80;;;;;;6176344;23;20022;-70
2022/12/14 01:22:44;;;;;;;1.98;1.85;;;24.40;79.80;;;;;;6177082;23;20025;-68
2022/12/14 01:25:11;;;;;;;3.63;2.88;;;24.40;79.80;;;;;;6176343;23;20011;-68
2022/12/14 01:27:37;;;;;;;2.33;2.05;;;24.40;79.70;;;;;;6176088;23;20009;-69
2022/12/14 01:30:04;;;;;;;3.10;2.33;;;24.40;79.70;;;;;;6177454;23;20385;-70
2022/12/14 01:32:31;;;;;;;2.13;1.92;;;24.40;79.70;;;;;;6175456;23;20020;-68
2022/12/14 01:34:57;;;;;;;3.50;2.13;;;24.40;79.70;;;;;;6177292;23;20009;-69
2022/12/14 01:37:24;;;;;;;3.28;2.92;;;24.40;79.70;;;;;;6176184;23;20060;-70
2022/12/14 01:39:50;;;;;;;4.40;2.92;;;24.40;79.80;;;;;;6177263;23;20055;-68
2022/12/14 01:42:17;;;;;;;4.70;3.22;;;24.40;79.80;;;;;;6176073;23;20076;-68
2022/12/14 01:44:43;;;;;;;5.68;3.58;;;24.40;79.70;;;;;;6176437;23;20396;-68
2022/12/14 01:47:25;;;;;;;8.55;4.38;;;24.40;79.80;;;;;;6177082;23;20432;-68
2022/12/14 01:49:54;;;;;;;10.75;6.05;;;24.40;79.90;;;;;;6175873;23;20421;-69
2022/12/14 01:52:21;;;;;;;14.18;5.97;;;24.40;79.90;;;;;;6176719;23;20044;-69
2022/12/14 01:55:12;;;;;;;9.73;5.30;;;24.40;80.00;;;;;;6175146;23;20004;-71
2022/12/14 01:57:49;;;;;;;15.55;5.93;;;24.40;80.00;;;;;;6175583;23;20005;-69
2022/12/14 02:00:17;;;;;;;11.93;6.85;;;24.40;80.10;;;;;;6177012;23;20009;-69
2022/12/14 04:20:36;;;;;;;14.95;10.77;;;23.80;84.30;;;;;;5047575;28;20085;-73
2022/12/14 04:27:23;;;;;;;19.35;14.15;;;24.00;83.70;;;;;;4969348;28;20174;-74
2022/12/14 04:30:09;;;;;;;;;;;24.00;83.30;;;;;;5051907;28;20037;-71
2022/12/14 04:32:59;;;;;;;15.98;11.55;;;24.00;83.10;;;;;;5043417;28;19909;-70
2022/12/14 04:35:31;;;;;;;11.32;9.45;;;24.00;82.90;;;;;;5045801;28;20033;-70
2022/12/14 04:38:07;;;;;;;12.07;9.38;;;24.10;82.80;;;;;;5029522;28;20134;-74
2022/12/14 04:40:42;;;;;;;22.58;16.85;;;24.10;82.70;;;;;;5048040;28;20017;-66
2022/12/14 04:43:13;;;;;;;20.15;17.70;;;24.10;82.60;;;;;;5042692;28;20558;-70
2022/12/14 04:45:55;;;;;;;17.20;15.20;;;24.10;82.50;;;;;;5042571;28;20034;-68
2022/12/14 04:48:38;;;;;;;12.27;10.05;;;24.10;82.50;;;;;;5046214;28;20029;-70
2022/12/14 04:51:38;;;;;;;9.73;8.23;;;24.10;82.40;;;;;;5042167;28;20037;-70
2022/12/14 04:54:11;;;;;;;10.57;7.72;;;24.20;82.40;;;;;;5033331;28;20065;-69
2022/12/14 04:56:55;;;;;;;10.60;7.18;;;24.20;82.40;;;;;;5045084;28;20029;-68
2022/12/14 04:59:23;;;;;;;11.27;6.40;;;24.20;82.40;;;;;;5042508;28;20033;-69
2022/12/14 05:01:58;;;;;;;9.50;6.65;;;24.20;82.20;;;;;;5044093;28;20084;-69
2022/12/14 05:05:06;;;;;;;10.75;6.20;;;24.20;82.20;;;;;;5057932;28;20512;-69
2022/12/14 05:08:09;;;;;;;11.35;6.57;;;24.20;82.10;;;;;;4955224;28;20031;-68
2022/12/14 05:10:42;;;;;;;9.60;6.22;;;24.20;82.00;;;;;;5043468;28;20025;-68
2022/12/14 05:13:44;;;;;;;7.78;5.70;;;24.20;82.00;;;;;;5036569;28;20037;-67
2022/12/14 05:16:15;;;;;;;8.23;6.30;;;24.20;82.20;;;;;;4999622;28;20037;-68
2022/12/14 05:18:44;;;;;;;8.80;6.13;;;24.30;82.30;;;;;;5013947;28;20029;-71
2022/12/14 05:21:51;;;;;;;8.27;5.22;;;24.30;82.30;;;;;;5009887;28;20094;-71
2022/12/14 05:24:58;;;;;;;7.00;5.00;;;24.30;82.30;;;;;;5030328;28;20116;-70
2022/12/14 05:28:04;;;;;;;9.80;6.20;;;24.30;82.30;;;;;;5030921;28;20029;-70
2022/12/14 05:31:11;;;;;;;7.75;5.93;;;24.40;82.30;;;;;;5044280;28;20475;-75
2022/12/14 05:33:57;;;;;;;;;;;24.40;82.40;;;;;;5031135;28;20400;-69
2022/12/14 05:37:03;;;;;;;10.82;5.75;;;24.40;82.50;;;;;;5029244;28;19913;-72
2022/12/14 05:39:49;;;;;;;;;;;24.40;82.60;;;;;;5027751;28;20036;-69
2022/12/14 05:42:55;;;;;;;6.57;4.53;;;24.50;82.70;;;;;;5033335;28;19913;-68
2022/12/14 05:45:41;;;;;;;;;;;24.50;82.70;;;;;;5029828;28;20025;-68
2022/12/14 05:48:47;;;;;;;10.07;6.72;;;24.50;82.70;;;;;;5030684;28;19905;-68
2022/12/14 05:51:33;;;;;;;;;;;24.60;82.70;;;;;;5031875;28;20057;-68
2022/12/14 05:54:39;;;;;;;7.13;5.47;;;24.60;82.80;;;;;;5033014;28;19909;-69
2022/12/14 05:57:25;;;;;;;;;;;24.60;82.80;;;;;;5032129;28;20032;-69
2022/12/14 06:00:31;;;;;;;9.60;5.38;;;24.60;83.00;;;;;;5031317;28;19983;-68
2022/12/14 06:03:37;;;;;;;5.65;5.15;;;24.70;83.10;;;;;;5012617;28;20033;-69
2022/12/14 06:06:23;;;;;;;;;;;24.70;83.10;;;;;;5030772;28;20116;-67
2022/12/14 06:09:29;;;;;;;7.40;5.47;;;24.70;83.20;;;;;;5030032;28;19905;-73
2022/12/14 06:12:15;;;;;;;;;;;24.70;83.30;;;;;;5026316;28;20052;-72
2022/12/14 06:15:21;;;;;;;20.95;7.53;;;24.70;83.40;;;;;;5028781;28;20339;-75
2022/12/14 06:18:07;;;;;;;;;;;24.80;83.40;;;;;;5032977;28;20700;-74
2022/12/14 06:21:13;;;;;;;13.27;7.90;;;24.80;83.20;;;;;;5032131;28;20074;-74
2022/12/14 06:24:20;;;;;;;19.85;7.50;;;24.90;82.90;;;;;;5011790;28;20038;-70
2022/12/14 06:27:08;;;;;;;;;;;24.90;83.00;;;;;;5046990;28;20031;-71
2022/12/14 06:30:15;;;;;;;9.43;5.03;;;24.90;83.00;;;;;;5035045;28;19912;-68
2022/12/14 06:33:00;;;;;;;;;;;24.90;83.00;;;;;;5031112;28;20383;-70
2022/12/14 06:36:06;;;;;;;5.20;3.15;;;24.90;83.60;;;;;;5032687;28;19912;-74
2022/12/14 06:38:52;;;;;;;;;;;25.00;82.80;;;;;;5032766;28;20030;-70
2022/12/14 06:41:58;;;;;;;5.85;3.20;;;24.90;82.60;;;;;;5026520;28;20355;-72
2022/12/14 06:44:44;;;;;;;;;;;25.00;82.60;;;;;;5026333;28;20083;-66
2022/12/14 06:47:50;;;;;;;11.40;5.07;;;25.00;82.60;;;;;;5027302;28;19909;-71
2022/12/14 06:50:36;;;;;;;;;;;25.00;82.60;;;;;;5028926;28;20022;-70
2022/12/14 06:53:42;;;;;;;10.50;5.10;;;25.00;82.60;;;;;;5026236;28;19924;-73
2022/12/14 06:56:28;;;;;;;;;;;25.00;82.60;;;;;;5030068;28;20587;-72
2022/12/14 06:59:34;;;;;;;16.48;4.80;;;25.10;82.60;;;;;;5030806;28;19951;-71
2022/12/14 07:02:01;;;;;;;;;;;25.10;82.50;;;;;;5026261;28;20211;-67
2022/12/14 07:04:27;;;;;;;9.25;4.15;;;25.10;82.30;;;;;;5008336;28;20207;-68
2022/12/14 07:06:54;;;;;;;10.05;4.53;;;25.10;82.20;;;;;;5028767;28;20095;-72
2022/12/14 07:09:20;;;;;;;5.47;3.97;;;25.10;82.00;;;;;;5031480;28;20476;-71
2022/12/14 07:11:50;;;;;;;5.28;3.28;;;25.10;81.80;;;;;;5025605;28;20065;-71
2022/12/14 07:14:17;;;;;;;4.30;3.20;;;25.10;81.60;;;;;;5026305;28;20026;-72
2022/12/14 07:16:43;;;;;;;5.07;4.07;;;25.10;81.40;;;;;;5030439;28;20722;-66
2022/12/14 07:19:10;;;;;;;7.85;5.18;;;25.10;81.20;;;;;;5030750;28;20025;-71
2022/12/14 07:21:36;;;;;;;4.15;3.75;;;25.10;81.00;;;;;;5027854;28;20076;-70
2022/12/14 07:24:03;;;;;;;4.75;3.00;;;25.10;80.70;;;;;;5030202;28;20030;-68
2022/12/14 07:26:30;;;;;;;6.53;3.40;;;25.10;80.60;;;;;;5028932;28;20025;-71
2022/12/14 07:29:01;;;;;;;7.13;3.30;;;25.10;80.50;;;;;;5030434;28;20021;-71
2022/12/14 07:31:28;;;;;;;4.80;3.05;;;25.10;80.40;;;;;;5029319;28;20100;-73
2022/12/14 07:33:57;;;;;;;7.38;3.45;;;25.00;80.30;;;;;;5027643;28;20361;-72
2022/12/14 07:36:25;;;;;;;4.63;3.33;;;25.10;80.30;;;;;;5029279;28;20043;-75
2022/12/14 07:38:54;;;;;;;5.65;3.47;;;25.10;80.40;;;;;;5030260;28;20028;-69
2022/12/14 07:41:24;;;;;;;9.15;4.30;;;25.00;80.50;;;;;;5029475;28;20037;-71
2022/12/14 07:43:53;;;;;;;5.65;3.00;;;25.00;80.70;;;;;;5027636;28;20392;-76
2022/12/14 07:46:23;;;;;;;6.63;3.97;;;25.00;80.70;;;;;;5030927;28;20059;-72
2022/12/14 07:48:52;;;;;;;4.22;3.22;;;25.10;80.60;;;;;;5029729;28;20018;-75
2022/12/14 07:51:21;;;;;;;3.70;3.40;;;25.10;80.40;;;;;;5032441;28;20021;-74
2022/12/14 07:53:49;;;;;;;5.63;2.40;;;25.10;80.40;;;;;;5026918;28;20075;-73
2022/12/14 07:56:22;;;;;;;3.78;2.53;;;25.10;80.30;;;;;;5028218;28;20417;-74
2022/12/14 07:58:48;;;;;;;4.13;2.10;;;25.10;80.20;;;;;;5029004;28;20021;-74
2022/12/14 08:01:18;;;;;;;2.65;2.20;;;25.10;80.20;;;;;;5024739;28;20384;-72
2022/12/14 08:04:09;;;;;;;3.10;2.78;;;25.10;80.10;;;;;;5031537;28;20024;-76
2022/12/14 08:06:36;;;;;;;4.63;3.40;;;25.10;80.00;;;;;;5010103;28;20440;-74
2022/12/14 08:09:04;;;;;;;3.53;2.55;;;25.20;80.00;;;;;;5012620;28;20084;-73
2022/12/14 08:11:30;;;;;;;3.22;2.92;;;25.20;79.90;;;;;;5028045;28;20061;-76
2022/12/14 08:13:59;;;;;;;6.03;3.15;;;25.20;79.80;;;;;;5031611;28;20380;-74
2022/12/14 08:16:28;;;;;;;4.15;3.35;;;25.20;79.70;;;;;;5028799;28;20029;-72
2022/12/14 08:18:57;;;;;;;3.55;3.20;;;25.20;79.60;;;;;;5027363;28;20021;-75
2022/12/14 08:21:25;;;;;;;4.30;3.40;;;25.30;79.50;;;;;;5029143;28;20030;-72
2022/12/14 08:23:52;;;;;;;4.05;3.05;;;25.30;79.40;;;;;;5028391;28;20095;-69
2022/12/14 08:26:20;;;;;;;4.05;3.08;;;25.30;79.40;;;;;;5027836;28;20037;-69
2022/12/14 08:28:47;;;;;;;6.90;4.32;;;25.30;79.20;;;;;;5027998;28;20021;-73
2022/12/14 08:31:22;;;;;;;8.30;4.80;;;25.40;79.40;;;;;;5031022;28;20064;-70
2022/12/14 08:33:49;;;;;;;8.10;3.95;;;25.40;79.60;;;;;;5031933;28;20025;-70
2022/12/14 08:36:19;;;;;;;6.22;3.95;;;25.40;79.70;;;;;;5027316;28;20029;-73
2022/12/14 08:38:50;;;;;;;5.90;3.83;;;25.50;79.80;;;;;;5029181;28;20136;-69
2022/12/14 08:41:17;;;;;;;7.82;4.47;;;25.50;79.70;;;;;;5028963;28;20033;-69
2022/12/14 08:43:43;;;;;;;6.78;3.80;;;25.50;79.60;;;;;;5028335;28;20037;-68
2022/12/14 08:46:10;;;;;;;8.93;4.68;;;25.60;79.50;;;;;;5028341;28;20377;-73
2022/12/14 08:48:37;;;;;;;6.55;3.58;;;25.60;79.30;;;;;;5028875;28;20079;-70
2022/12/14 08:51:06;;;;;;;3.22;1.85;;;25.60;79.20;;;;;;5037226;28;20064;-72
2022/12/14 08:53:33;;;;;;;5.28;1.60;;;25.60;79.20;;;;;;5032672;28;20036;-72
2022/12/14 08:56:09;;;;;;;5.03;1.02;;;25.70;79.20;;;;;;5030621;28;20029;-71
2022/12/14 08:58:36;;;;;;;4.63;1.40;;;25.70;79.10;;;;;;5028668;28;20503;-74
2022/12/14 09:01:12;;;;;;;5.10;1.30;;;25.70;79.10;;;;;;5032475;28;20541;-70
2022/12/14 09:03:40;;;;;;;2.58;1.00;;;25.70;79.10;;;;;;5032346;28;20021;-72
2022/12/14 09:06:10;;;;;;;2.20;1.80;;;25.70;79.00;;;;;;5031738;28;20013;-70
2022/12/14 09:08:36;;;;;;;1.50;1.40;;;25.70;79.00;;;;;;5030811;28;20536;-72
2022/12/14 09:11:04;;;;;;;3.75;1.63;;;25.70;79.00;;;;;;5032586;28;20025;-71
2022/12/14 09:13:31;;;;;;;2.03;1.92;;;25.70;78.80;;;;;;5031597;28;20029;-74
2022/12/14 09:16:00;;;;;;;3.25;1.35;;;25.70;78.80;;;;;;5027618;28;20059;-70
2022/12/14 09:18:27;;;;;;;2.05;1.27;;;25.80;79.00;;;;;;5030994;28;20507;-72
2022/12/14 09:20:54;;;;;;;5.10;1.17;;;25.80;78.90;;;;;;5029053;28;20021;-73
2022/12/14 09:23:22;;;;;;;4.00;1.17;;;25.80;78.70;;;;;;5029911;28;20052;-69
2022/12/14 09:26:04;;;;;;;3.40;1.55;;;25.80;78.50;;;;;;5028925;28;20029;-69
2022/12/14 09:28:33;;;;;;;0.77;0.77;;;25.90;78.30;;;;;;5032780;28;20033;-73
2022/12/14 09:31:06;;;;;;;0.98;0.95;;;25.90;78.10;;;;;;5035505;28;20104;-70
2022/12/14 09:33:34;;;;;;;1.55;0.73;;;26.00;77.90;;;;;;5029935;28;20061;-73
2022/12/14 09:36:05;;;;;;;6.30;1.27;;;26.00;77.50;;;;;;5032035;28;20017;-68
2022/12/14 09:38:34;;;;;;;3.15;1.05;;;26.10;77.30;;;;;;5032907;28;20453;-70
2022/12/14 09:41:18;;;;;;;1.67;0.95;;;26.10;77.30;;;;;;5029163;28;20029;-69
2022/12/14 09:44:00;;;;;;;0.70;0.70;;;26.30;77.10;;;;;;5029064;28;20037;-70
2022/12/14 09:46:36;;;;;;;1.63;0.90;;;26.30;76.40;;;;;;5033944;28;20392;-69
2022/12/14 09:49:03;;;;;;;0.40;0.40;;;26.40;76.00;;;;;;5026394;28;20064;-73
2022/12/14 09:51:35;;;;;;;2.47;1.00;;;26.40;75.60;;;;;;5028729;28;20105;-72
2022/12/14 09:54:06;;;;;;;2.42;1.10;;;26.50;75.20;;;;;;5031589;28;20012;-70
2022/12/14 09:56:33;;;;;;;1.15;1.05;;;26.60;75.20;;;;;;5030877;28;20025;-71
2022/12/14 09:59:02;;;;;;;1.42;0.70;;;26.70;75.10;;;;;;5029353;28;20032;-69
2022/12/14 10:01:49;;;;;;;2.28;0.88;;;26.70;74.70;;;;;;5028925;28;20499;-73
2022/12/14 10:04:30;;;;;;;2.17;0.70;;;26.80;74.80;;;;;;5032863;28;20021;-72
2022/12/14 10:07:13;;;;;;;4.55;0.95;;;26.90;74.50;;;;;;5029310;28;20029;-71
2022/12/14 14:31:50;;;;;;;1.25;0.80;;;28.90;61.10;;;;;;6332549;22;20026;-70
2022/12/14 14:34:39;;;;;;;4.07;0.95;;;28.80;61.80;;;;;;6333095;22;20007;-72
2022/12/14 14:37:21;;;;;;;7.68;3.63;;;28.80;61.40;;;;;;6316968;22;20003;-70
2022/12/14 14:40:11;;;;;;;8.88;1.30;;;28.80;61.80;;;;;;6333059;22;20346;-69
2022/12/14 14:42:46;;;;;;;2.13;1.25;;;28.80;61.80;;;;;;6333078;22;19999;-72
2022/12/14 14:45:30;;;;;;;;;;;28.70;62.20;;;;;;6333761;22;20011;-70
2022/12/14 14:48:01;;;;;;;0.85;0.85;;;28.60;62.40;;;;;;6333652;22;20372;-70
2022/12/14 14:50:35;;;;;;;2.20;1.30;;;28.60;62.70;;;;;;6332436;22;20002;-71
2022/12/14 14:53:17;;;;;;;3.42;0.82;;;28.60;62.70;;;;;;6305652;22;20002;-72
2022/12/14 14:55:58;;;;;;;2.75;1.48;;;28.60;62.80;;;;;;6333321;22;20003;-67
2022/12/14 14:58:40;;;;;;;2.15;1.13;;;28.60;62.90;;;;;;6331634;22;19997;-69
2022/12/14 15:01:09;;;;;;;8.00;1.90;;;28.70;63.20;;;;;;6305503;22;20094;-70
2022/12/14 15:03:56;;;;;;;3.80;1.52;;;28.70;63.40;;;;;;6332848;22;19995;-71
2022/12/14 15:06:25;;;;;;;2.40;1.20;;;28.70;63.50;;;;;;6331821;22;20127;-66
2022/12/14 15:09:26;;;;;;;1.80;1.70;;;28.80;63.70;;;;;;6331598;22;20438;-69
2022/12/14 15:12:02;;;;;;;5.53;1.73;;;28.80;63.80;;;;;;6300459;22;20052;-67
2022/12/14 15:14:33;;;;;;;1.75;1.10;;;28.80;64.20;;;;;;6332585;22;20085;-67
2022/12/14 15:17:18;;;;;;;7.85;1.63;;;28.80;64.70;;;;;;6331235;22;20073;-71
2022/12/14 15:19:55;;;;;;;5.25;1.77;;;28.80;64.80;;;;;;6331021;22;20006;-74
2022/12/14 15:22:27;;;;;;;3.13;2.30;;;28.80;65.20;;;;;;6332311;22;20295;-73
2022/12/14 15:24:57;;;;;;;6.70;3.17;;;28.90;64.80;;;;;;6330352;22;20094;-73
2022/12/14 15:27:31;;;;;;;4.50;3.53;;;28.90;64.30;;;;;;6332139;22;20128;-71
2022/12/14 15:30:10;;;;;;;18.98;17.10;;;28.90;64.50;;;;;;6330160;22;20105;-70
2022/12/14 15:32:42;;;;;;;15.15;13.63;;;28.90;64.50;;;;;;6305082;22;20010;-71
2022/12/14 15:35:17;;;;;;;12.10;11.02;;;29.00;64.20;;;;;;6333091;22;19998;-69
2022/12/14 15:37:49;;;;;;;5.13;4.72;;;29.00;63.80;;;;;;6332060;22;20002;-71
2022/12/14 15:40:19;;;;;;;3.20;3.00;;;29.00;63.20;;;;;;6332900;22;20076;-70
2022/12/14 15:42:51;;;;;;;2.08;1.50;;;29.00;62.80;;;;;;6330107;22;20006;-71
2022/12/14 15:45:34;;;;;;;1.67;1.58;;;29.10;62.80;;;;;;6303763;22;20014;-74
2022/12/14 15:48:29;;;;;;;1.65;1.55;;;29.10;62.70;;;;;;6332020;22;20023;-71
2022/12/14 15:50:59;;;;;;;1.05;1.00;;;29.00;62.40;;;;;;6331050;22;20338;-70
2022/12/14 15:53:42;;;;;;;1.25;1.13;;;29.10;62.40;;;;;;6332994;22;20361;-70
2022/12/14 15:56:22;;;;;;;0.77;0.75;;;29.10;62.20;;;;;;6330882;22;20060;-73
2022/12/14 15:58:51;;;;;;;2.45;2.25;;;29.10;62.10;;;;;;6331956;22;20009;-72
2022/12/14 16:01:22;;;;;;;10.80;7.05;;;29.10;62.00;;;;;;6333404;22;19999;-70
2022/12/14 16:03:55;;;;;;;8.32;6.95;;;29.10;61.90;;;;;;6331933;22;20002;-72
2022/12/14 16:06:26;;;;;;;7.47;5.22;;;29.10;61.80;;;;;;6331906;22;20067;-68
2022/12/14 16:09:01;;;;;;;5.13;4.55;;;29.10;61.70;;;;;;6331240;22;19999;-71
2022/12/14 16:11:39;;;;;;;5.07;2.42;;;29.10;61.60;;;;;;6333241;22;20006;-69
2022/12/14 16:14:18;;;;;;;1.30;1.20;;;29.10;61.50;;;;;;6333208;22;19999;-70
2022/12/14 16:16:46;;;;;;;1.80;1.65;;;29.10;61.40;;;;;;6332028;22;19999;-71
2022/12/14 16:19:19;;;;;;;1.73;1.38;;;29.10;61.40;;;;;;6332917;22;20047;-70
2022/12/14 16:22:08;;;;;;;1.40;1.30;;;29.00;61.30;;;;;;6331757;22;20006;-70
2022/12/14 16:25:07;;;;;;;2.25;1.33;;;29.00;61.50;;;;;;6332587;22;20466;-69
2022/12/14 16:28:16;;;;;;;6.05;1.45;;;29.00;61.70;;;;;;6332085;22;20023;-70
2022/12/14 16:31:25;;;;;;;1.40;1.30;;;28.90;61.90;;;;;;6302710;22;20018;-73
2022/12/14 16:34:47;;;;;;;8.35;7.55;;;28.90;62.10;;;;;;6330767;22;20007;-71
2022/12/14 16:37:54;;;;;;;9.65;7.05;;;28.80;62.30;;;;;;6236671;23;20012;-71
2022/12/14 16:41:18;;;;;;;5.68;3.83;;;28.80;62.40;;;;;;6332049;22;20018;-74
2022/12/14 16:44:27;;;;;;;4.22;2.55;;;28.70;62.50;;;;;;6330877;22;20007;-71
2022/12/14 16:47:02;;;;;;;3.22;2.05;;;28.80;62.80;;;;;;6327832;22;20015;-72
2022/12/14 16:50:14;;;;;;;2.00;1.30;;;28.70;63.60;;;;;;6331000;22;20003;-72
2022/12/14 16:53:21;;;;;;;1.40;1.20;;;28.70;63.20;;;;;;6333155;22;20007;-68
2022/12/14 16:56:42;;;;;;;0.90;0.88;;;28.60;63.10;;;;;;6331837;22;20409;-71
2022/12/14 17:00:00;;;;;;;1.90;1.80;;;28.60;63.20;;;;;;6328219;22;20402;-71
2022/12/14 17:02:35;;;;;;;13.60;3.22;;;28.60;63.30;;;;;;6332858;22;20007;-69
2022/12/14 17:05:11;;;;;;;1.63;1.33;;;28.50;63.30;;;;;;6332507;22;20401;-71
2022/12/14 17:07:38;;;;;;;2.25;0.80;;;28.50;63.40;;;;;;6333803;22;20373;-69
2022/12/14 17:10:14;;;;;;;0.98;0.88;;;28.50;63.50;;;;;;6333430;22;19999;-71
2022/12/14 17:12:42;;;;;;;1.98;1.20;;;28.50;63.60;;;;;;6305723;22;20002;-69
2022/12/14 17:15:16;;;;;;;2.95;2.28;;;28.40;63.70;;;;;;6334178;22;19999;-75
2022/12/14 17:17:44;;;;;;;2.35;2.15;;;28.40;63.90;;;;;;6332564;22;20009;-72
2022/12/14 17:20:24;;;;;;;3.08;1.80;;;28.40;64.20;;;;;;6334242;22;20033;-68
2022/12/14 17:22:52;;;;;;;3.28;1.30;;;28.30;64.20;;;;;;6333972;22;20044;-69
2022/12/14 17:25:19;;;;;;;1.15;1.05;;;28.30;64.50;;;;;;6335535;22;20383;-70
2022/12/14 17:27:46;;;;;;;0.98;0.98;;;28.20;64.70;;;;;;6307286;22;20084;-74
2022/12/14 17:30:20;;;;;;;1.35;0.70;;;28.20;64.90;;;;;;6333449;22;20010;-75
2022/12/14 17:32:47;;;;;;;3.03;1.20;;;28.20;65.10;;;;;;6335727;22;20007;-74
2022/12/14 17:35:27;;;;;;;4.30;3.83;;;28.20;65.30;;;;;;6333422;22;20002;-75
2022/12/14 17:37:54;;;;;;;8.20;7.40;;;28.10;65.50;;;;;;6335907;22;20365;-76
2022/12/14 17:41:00;;;;;;;8.68;6.63;;;28.10;65.70;;;;;;6332205;22;20025;-70
2022/12/14 17:43:27;;;;;;;8.00;7.20;;;28.10;65.90;;;;;;6333767;22;20417;-73
2022/12/14 17:45:54;;;;;;;4.85;3.22;;;28.00;66.10;;;;;;6335210;22;20017;-69
2022/12/14 17:48:21;;;;;;;4.53;3.78;;;28.00;66.30;;;;;;6332831;22;20052;-77
2022/12/14 17:50:49;;;;;;;1.50;1.35;;;28.00;66.50;;;;;;6333081;22;20001;-71
2022/12/14 17:53:19;;;;;;;1.20;1.10;;;28.00;67.40;;;;;;6304571;22;20022;-70
2022/12/14 17:55:51;;;;;;;1.70;0.98;;;27.90;66.90;;;;;;6332510;22;20006;-73
2022/12/14 17:58:18;;;;;;;1.08;0.98;;;27.90;67.20;;;;;;6305553;22;20391;-69
2022/12/14 18:01:01;;;;;;;1.88;1.08;;;27.80;67.50;;;;;;6332004;22;20005;-73
2022/12/14 20:13:29;;;;;;;1.25;0.77;;;26.30;73.50;;;;;;5074496;28;20455;-69
2022/12/14 20:16:04;;;;;;;1.33;1.08;;;26.40;74.50;;;;;;5057147;28;20056;-68
2022/12/14 20:18:32;;;;;;;0.80;0.55;;;26.40;74.50;;;;;;5063545;28;20491;-71
2022/12/14 20:21:16;;;;;;;2.33;0.95;;;26.40;74.40;;;;;;5062421;28;20075;-71
2022/12/14 20:24:18;;;;;;;0.90;0.70;;;26.50;74.30;;;;;;5063005;28;20059;-74
2022/12/14 20:26:53;;;;;;;1.63;1.10;;;26.50;74.20;;;;;;5059149;28;20115;-70
2022/12/14 20:29:20;;;;;;;1.02;1.00;;;26.50;74.10;;;;;;5058277;28;20029;-73
2022/12/14 20:31:47;;;;;;;2.63;1.08;;;26.50;74.00;;;;;;5059762;28;20025;-70
2022/12/14 20:34:18;;;;;;;2.15;0.80;;;26.50;73.90;;;;;;5062034;28;20029;-75
2022/12/14 20:36:50;;;;;;;4.13;1.70;;;26.50;73.90;;;;;;5062004;28;20466;-75
2022/12/14 20:39:28;;;;;;;1.83;1.67;;;26.50;74.00;;;;;;5058267;28;20055;-75
2022/12/14 20:42:33;;;;;;;3.90;1.27;;;26.50;74.30;;;;;;5063353;28;20037;-71
2022/12/14 20:45:51;;;;;;;1.02;1.00;;;26.50;74.60;;;;;;5062144;28;20060;-71
2022/12/14 20:48:21;;;;;;;1.30;0.80;;;26.40;74.60;;;;;;5063917;28;20387;-72
2022/12/14 20:50:52;;;;;;;1.38;0.85;;;26.40;74.70;;;;;;5063334;28;20390;-69
2022/12/14 20:53:39;;;;;;;1.73;1.08;;;26.40;75.10;;;;;;5063801;28;20033;-70
2022/12/14 20:56:27;;;;;;;1.52;1.00;;;26.40;74.80;;;;;;5055214;28;20060;-70
2022/12/14 20:58:57;;;;;;;0.80;0.80;;;26.40;74.90;;;;;;5045430;28;20163;-70
2022/12/14 21:01:46;;;;;;;2.10;1.05;;;26.40;74.90;;;;;;5062774;28;20024;-70
2022/12/14 21:04:21;;;;;;;2.35;0.80;;;26.40;74.90;;;;;;5058886;28;20088;-73
2022/12/14 21:06:52;;;;;;;1.15;0.90;;;26.40;74.90;;;;;;5063890;28;20021;-69
2022/12/14 21:09:19;;;;;;;1.92;0.70;;;26.30;74.70;;;;;;5058329;28;20025;-69
2022/12/14 21:14:42;;;;;;;2.05;1.17;;;26.30;74.60;;;;;;5050116;28;20094;-71
2022/12/14 21:17:25;;;;;;;1.50;0.80;;;26.30;74.90;;;;;;5049958;28;20048;-71
2022/12/14 21:19:52;;;;;;;1.20;0.88;;;26.30;75.20;;;;;;5064579;28;20124;-69
2022/12/14 21:22:24;;;;;;;1.75;1.20;;;26.30;75.50;;;;;;5051772;28;20032;-69
2022/12/14 21:25:28;;;;;;;2.58;1.42;;;26.30;75.50;;;;;;5048851;28;20051;-69
2022/12/14 21:28:05;;;;;;;1.77;1.15;;;26.30;75.20;;;;;;5046230;28;20042;-72
2022/12/14 21:30:41;;;;;;;3.00;1.45;;;26.20;75.00;;;;;;5047430;28;20461;-68
2022/12/14 21:33:53;;;;;;;3.33;1.48;;;26.20;75.00;;;;;;5046935;28;20025;-74
2022/12/14 21:36:23;;;;;;;1.40;0.95;;;26.20;74.70;;;;;;5048551;28;20021;-74
2022/12/14 21:38:53;;;;;;;1.40;0.57;;;26.20;74.70;;;;;;5052564;28;20037;-69
2022/12/14 21:44:07;;;;;;;0.70;0.70;;;26.20;74.60;;;;;;5038377;28;20155;-71
2022/12/14 21:46:43;;;;;;;1.17;0.90;;;26.10;74.60;;;;;;5050322;28;20021;-68
2022/12/14 21:49:13;;;;;;;1.73;0.90;;;26.10;74.60;;;;;;5045695;28;20159;-67
2022/12/14 21:52:03;;;;;;;1.60;0.88;;;26.10;74.70;;;;;;5046903;28;20009;-73
2022/12/14 21:54:36;;;;;;;0.73;0.60;;;26.10;74.80;;;;;;5044145;28;20076;-73
2022/12/14 22:00:00;;;;;;;0.82;0.60;;;26.10;75.00;;;;;;5049191;28;20043;-70
2022/12/14 22:02:46;;;;;;;;;;;;;;;;;;;;;
2022/12/14 22:05:37;;;;;;;0.90;0.70;;;26.00;74.90;;;;;;5048894;28;20043;-70
2022/12/14 22:08:43;;;;;;;2.28;1.10;;;26.00;75.00;;;;;;5045137;28;20133;-68
2022/12/14 22:11:30;;;;;;;0.75;0.50;;;26.00;75.00;;;;;;5046744;28;20025;-74
2022/12/14 22:14:01;;;;;;;2.80;0.98;;;26.00;75.00;;;;;;5042736;28;20033;-70
2022/12/14 22:16:33;;;;;;;1.25;1.15;;;26.00;75.10;;;;;;5044368;28;20028;-69
2022/12/14 22:19:01;;;;;;;1.60;0.93;;;25.90;75.20;;;;;;5049148;28;20442;-68
2022/12/14 22:21:31;;;;;;;0.88;0.60;;;25.90;75.30;;;;;;5049368;28;20025;-72
2022/12/14 22:23:58;;;;;;;1.20;0.85;;;25.90;75.90;;;;;;5048665;28;20024;-74
2022/12/14 22:26:38;;;;;;;0.70;0.70;;;25.90;75.30;;;;;;5045825;28;20153;-71
2022/12/14 22:29:09;;;;;;;3.78;0.77;;;25.90;75.40;;;;;;5049367;28;20029;-70
2022/12/14 22:32:22;;;;;;;1.52;1.08;;;25.90;75.50;;;;;;5062373;28;20024;-69
2022/12/14 22:35:12;;;;;;;1.55;1.10;;;25.90;75.60;;;;;;5047747;28;20035;-70
2022/12/14 22:37:45;;;;;;;3.45;0.95;;;25.80;75.70;;;;;;5031056;28;20033;-71
2022/12/14 22:40:31;;;;;;;1.45;1.05;;;25.90;75.80;;;;;;5047639;28;20108;-71
2022/12/14 22:43:40;;;;;;;0.63;0.63;;;25.80;75.90;;;;;;5042896;28;20155;-71
2022/12/14 22:46:12;;;;;;;2.83;1.13;;;25.80;75.90;;;;;;5047147;28;20029;-69
2022/12/14 22:49:18;;;;;;;2.50;1.35;;;25.80;76.00;;;;;;5050354;28;20052;-73